createdAt,value
2023-04-11T00:00:55.597Z,97.13
2023-04-11T00:03:22.626Z,97.18
2023-04-11T00:05:49.384Z,97.69
2023-04-11T00:08:15.872Z,98.17
2023-04-11T00:10:43.208Z,99.27
2023-04-11T00:13:11.253Z,100.00
2023-04-11T00:15:37.678Z,99.69
2023-04-11T00:18:04.275Z,100.00
2023-04-11T00:20:30.647Z,100.00
2023-04-11T00:22:57.133Z,100.00
2023-04-11T00:25:23.749Z,100.00
2023-04-11T00:27:50.136Z,100.00
2023-04-11T00:30:16.533Z,100.00
2023-04-11T00:32:42.966Z,100.00
2023-04-11T00:35:09.778Z,100.00
2023-04-11T00:37:36.637Z,100.00
2023-04-11T00:40:03.187Z,100.00
2023-04-11T00:42:29.557Z,100.00
2023-04-11T00:44:56.106Z,100.00
2023-04-11T00:47:22.504Z,98.94
2023-04-11T00:49:49.262Z,98.34
2023-04-11T00:52:15.819Z,99.27
2023-04-11T00:54:42.165Z,99.01
2023-04-11T00:57:08.626Z,98.42
2023-04-11T00:59:35.436Z,99.10
2023-04-11T01:02:02.019Z,99.31
2023-04-11T01:04:28.826Z,100.00
2023-04-11T01:07:00.592Z,100.00
2023-04-11T01:09:28.701Z,100.00
2023-04-11T01:11:56.176Z,100.00
2023-04-11T01:14:23.793Z,100.00
2023-04-11T01:16:50.275Z,100.00
2023-04-11T01:19:19.816Z,100.00
2023-04-11T01:21:48.383Z,100.00
2023-04-11T01:24:15.208Z,100.00
2023-04-11T01:26:42.115Z,100.00
2023-04-11T01:29:08.632Z,100.00
2023-04-11T01:31:35.302Z,100.00
2023-04-11T01:34:02.800Z,100.00
2023-04-11T01:36:30.969Z,100.00
2023-04-11T01:38:57.921Z,100.00
2023-04-11T01:41:29.759Z,100.00
2023-04-11T01:43:57.025Z,100.00
2023-04-11T01:46:24.337Z,100.00
2023-04-11T01:48:55.688Z,100.00
2023-04-11T01:51:22.240Z,100.00
2023-04-11T01:53:51.206Z,100.00
2023-04-11T01:56:17.710Z,100.00
2023-04-11T01:58:44.452Z,100.00
2023-04-11T02:01:11.186Z,100.00
2023-04-11T02:03:37.854Z,100.00
2023-04-11T02:06:05.043Z,100.00
2023-04-11T02:08:31.580Z,100.00
2023-04-11T02:10:58.044Z,100.00
2023-04-11T02:13:24.708Z,100.00
2023-04-11T02:15:51.252Z,100.00
2023-04-11T02:18:18.022Z,100.00
2023-04-11T02:20:44.527Z,100.00
2023-04-11T02:23:10.923Z,100.00
2023-04-11T02:25:37.351Z,100.00
2023-04-11T02:28:04.601Z,100.00
2023-04-11T02:30:32.730Z,100.00
2023-04-11T02:32:59.268Z,100.00
2023-04-11T02:35:25.669Z,100.00
2023-04-11T02:37:52.334Z,100.00
2023-04-11T02:40:18.812Z,100.00
2023-04-11T02:42:45.334Z,100.00
2023-04-11T02:45:11.827Z,100.00
2023-04-11T02:47:39.431Z,100.00
2023-04-11T02:50:06.596Z,100.00
2023-04-11T02:52:33.043Z,100.00
2023-04-11T02:54:59.849Z,100.00
2023-04-11T02:57:26.580Z,100.00
2023-04-11T02:59:53.069Z,100.00
2023-04-11T03:02:19.892Z,100.00
2023-04-11T03:04:46.507Z,100.00
2023-04-11T03:07:12.878Z,100.00
2023-04-11T03:09:39.212Z,100.00
2023-04-11T03:12:05.970Z,100.00
2023-04-11T03:14:32.381Z,100.00
2023-04-11T03:16:58.945Z,100.00
2023-04-11T03:19:25.301Z,100.00
2023-04-11T03:21:51.699Z,100.00
2023-04-11T03:24:18.021Z,100.00
2023-04-11T03:26:44.376Z,100.00
2023-04-11T03:29:10.761Z,100.00
2023-04-11T03:31:37.608Z,100.00
2023-04-11T03:34:04.133Z,100.00
2023-04-11T03:36:30.609Z,100.00
2023-04-11T03:38:57.132Z,100.00
2023-04-11T03:41:23.749Z,100.00
2023-04-11T03:43:50.173Z,100.00
2023-04-11T03:46:16.935Z,100.00
2023-04-11T03:48:43.363Z,100.00
2023-04-11T03:51:09.765Z,100.00
2023-04-11T03:53:36.274Z,100.00
2023-04-11T03:56:02.701Z,100.00
2023-04-11T03:58:29.425Z,100.00
2023-04-11T04:00:55.878Z,100.00
2023-04-11T04:03:22.454Z,100.00
2023-04-11T04:05:49.184Z,100.00
2023-04-11T04:08:15.715Z,100.00
2023-04-11T04:10:42.097Z,100.00
2023-04-11T04:13:08.859Z,100.00
2023-04-11T04:15:35.592Z,100.00
2023-04-11T04:18:02.212Z,100.00
2023-04-11T04:20:28.631Z,100.00
2023-04-11T04:22:55.077Z,100.00
2023-04-11T04:25:22.988Z,100.00
2023-04-11T04:27:50.336Z,100.00
2023-04-11T04:30:16.891Z,100.00
2023-04-11T04:32:43.444Z,100.00
2023-04-11T04:35:10.231Z,100.00
2023-04-11T04:37:36.791Z,100.00
2023-04-11T04:40:03.285Z,100.00
2023-04-11T04:42:30.123Z,100.00
2023-04-11T04:44:57.102Z,100.00
2023-04-11T04:47:25.533Z,100.00
2023-04-11T04:49:56.202Z,100.00
2023-04-11T04:52:24.332Z,100.00
2023-04-11T04:54:50.740Z,100.00
2023-04-11T04:57:17.204Z,100.00
2023-04-11T04:59:47.016Z,100.00
2023-04-11T05:02:13.604Z,100.00
2023-04-11T05:04:40.405Z,100.00
2023-04-11T05:07:07.122Z,100.00
2023-04-11T05:09:33.782Z,100.00
2023-04-11T05:12:00.446Z,100.00
2023-04-11T05:14:27.088Z,100.00
2023-04-11T05:16:53.538Z,100.00
2023-04-11T05:19:19.912Z,100.00
2023-04-11T05:21:46.586Z,100.00
2023-04-11T05:24:13.037Z,100.00
2023-04-11T05:26:39.836Z,100.00
2023-04-11T05:29:06.434Z,100.00
2023-04-11T05:31:33.024Z,100.00
2023-04-11T05:33:59.537Z,100.00
2023-04-11T05:36:26.135Z,100.00
2023-04-11T05:38:52.544Z,100.00
2023-04-11T05:41:19.035Z,100.00
2023-04-11T05:43:45.494Z,100.00
2023-04-11T05:46:12.054Z,100.00
2023-04-11T05:48:39.301Z,100.00
2023-04-11T05:51:05.804Z,100.00
2023-04-11T05:53:32.690Z,100.00
2023-04-11T05:55:59.523Z,100.00
2023-04-11T05:58:25.961Z,100.00
2023-04-11T06:00:52.510Z,100.00
2023-04-11T06:03:19.227Z,100.00
2023-04-11T06:05:45.783Z,100.00
2023-04-11T06:08:12.256Z,100.00
2023-04-11T06:10:38.778Z,100.00
2023-04-11T06:13:05.220Z,100.00
2023-04-11T06:15:32.161Z,100.00
2023-04-11T06:17:58.619Z,100.00
2023-04-11T06:20:25.353Z,100.00
2023-04-11T06:22:51.867Z,100.00
2023-04-11T06:25:21.734Z,100.00
2023-04-11T06:27:48.315Z,100.00
2023-04-11T06:30:15.080Z,100.00
2023-04-11T06:32:41.710Z,100.00
2023-04-11T06:35:08.655Z,100.00
2023-04-11T06:37:35.050Z,100.00
2023-04-11T06:40:02.319Z,100.00
2023-04-11T06:42:29.086Z,100.00
2023-04-11T06:44:55.490Z,100.00
2023-04-11T06:47:22.052Z,100.00
2023-04-11T06:49:48.597Z,100.00
2023-04-11T06:52:15.690Z,100.00
2023-04-11T06:54:42.129Z,100.00
2023-04-11T06:57:08.615Z,100.00
2023-04-11T06:59:35.308Z,100.00
2023-04-11T07:02:02.257Z,100.00
2023-04-11T07:04:29.707Z,100.00
2023-04-11T07:06:56.362Z,100.00
2023-04-11T07:09:22.863Z,100.00
2023-04-11T07:11:49.625Z,100.00
2023-04-11T07:14:16.120Z,100.00
2023-04-11T07:16:42.971Z,100.00
2023-04-11T07:19:09.820Z,100.00
2023-04-11T07:21:36.697Z,100.00
2023-04-11T07:24:03.178Z,100.00
2023-04-11T07:26:29.740Z,100.00
2023-04-11T07:28:56.174Z,100.00
2023-04-11T07:31:22.961Z,100.00
2023-04-11T07:33:49.400Z,100.00
2023-04-11T07:36:15.830Z,100.00
2023-04-11T07:38:43.015Z,100.00
2023-04-11T07:41:09.682Z,100.00
2023-04-11T07:43:36.143Z,100.00
2023-04-11T07:46:02.960Z,100.00
2023-04-11T07:48:31.037Z,100.00
2023-04-11T07:50:57.598Z,100.00
2023-04-11T07:53:24.198Z,100.00
2023-04-11T07:55:50.616Z,100.00
2023-04-11T07:58:17.086Z,100.00
2023-04-11T08:00:43.482Z,100.00
2023-04-11T08:03:11.616Z,100.00
2023-04-11T08:05:38.188Z,100.00
2023-04-11T08:08:05.401Z,100.00
2023-04-11T08:10:32.416Z,100.00
2023-04-11T08:12:59.160Z,100.00
2023-04-11T08:15:26.136Z,100.00
2023-04-11T08:17:53.521Z,100.00
2023-04-11T08:20:19.988Z,100.00
2023-04-11T08:22:47.512Z,100.00
2023-04-11T08:25:14.797Z,100.00
2023-04-11T08:27:41.812Z,100.00
2023-04-11T08:30:08.806Z,100.00
2023-04-11T08:32:35.908Z,100.00
2023-04-11T08:35:02.399Z,100.00
2023-04-11T08:37:29.805Z,100.00
2023-04-11T08:39:56.584Z,100.00
2023-04-11T08:42:28.289Z,100.00
2023-04-11T08:45:00.489Z,100.00
2023-04-11T08:47:27.244Z,100.00
2023-04-11T08:49:54.073Z,100.00
2023-04-11T08:52:20.936Z,100.00
2023-04-11T08:54:48.376Z,100.00
2023-04-11T08:57:29.528Z,100.00
2023-04-11T08:59:57.828Z,100.00
2023-04-11T09:02:24.610Z,100.00
2023-04-11T09:04:51.120Z,100.00
2023-04-11T09:07:17.917Z,100.00
2023-04-11T09:09:45.033Z,100.00
2023-04-11T09:12:13.106Z,100.00
2023-04-11T09:14:40.219Z,100.00
2023-04-11T09:17:08.414Z,100.00
2023-04-11T09:19:35.410Z,100.00
2023-04-11T09:22:03.757Z,100.00
2023-04-11T09:24:32.028Z,100.00
2023-04-11T09:27:13.920Z,100.00
2023-04-11T09:29:44.659Z,98.54
2023-04-11T09:32:25.916Z,100.00
2023-04-11T09:35:06.869Z,98.35
2023-04-11T09:37:43.135Z,97.94
2023-04-11T09:40:10.016Z,91.89
2023-04-11T09:42:36.498Z,97.20
2023-04-11T09:45:03.306Z,94.91
2023-04-11T09:47:33.689Z,94.50
2023-04-11T09:50:00.485Z,93.84
2023-04-11T09:52:27.362Z,93.00
2023-04-11T09:54:54.480Z,94.20
2023-04-11T09:57:21.689Z,93.72
2023-04-11T09:59:48.804Z,91.69
2023-04-11T10:02:15.666Z,91.15
2023-04-11T10:04:42.413Z,92.60
2023-04-11T10:07:13.472Z,88.02
2023-04-11T10:09:42.294Z,87.03
2023-04-11T10:12:09.605Z,88.59
2023-04-11T10:14:38.855Z,86.74
2023-04-11T10:17:22.211Z,86.34
2023-04-11T10:19:50.434Z,82.41
2023-04-11T10:22:59.264Z,81.09
2023-04-11T10:25:25.811Z,82.79
2023-04-11T10:27:54.769Z,82.11
2023-04-11T10:30:39.601Z,78.46
2023-04-11T10:33:14.771Z,79.68
2023-04-11T10:36:05.885Z,79.85
2023-04-11T10:38:42.068Z,80.42
2023-04-11T10:41:24.740Z,80.77
2023-04-11T10:43:52.752Z,85.05
2023-04-11T10:46:21.295Z,86.25
2023-04-11T10:48:58.323Z,82.75
2023-04-11T10:51:25.990Z,86.88
2023-04-11T10:53:52.947Z,84.73
2023-04-11T10:56:44.550Z,85.16
2023-04-11T10:59:32.854Z,85.34
2023-04-11T11:01:59.961Z,82.53
2023-04-11T11:04:39.557Z,87.12
2023-04-11T11:07:12.730Z,85.01
2023-04-11T11:09:39.577Z,81.32
2023-04-11T11:12:11.714Z,83.88
2023-04-11T11:14:41.649Z,77.31
2023-04-11T11:17:08.672Z,75.99
2023-04-11T11:19:36.345Z,81.68
2023-04-11T11:22:03.060Z,84.41
2023-04-11T11:24:30.349Z,86.68
2023-04-11T11:26:57.882Z,86.69
2023-04-11T11:29:35.400Z,86.70
2023-04-11T11:32:02.690Z,87.83
2023-04-11T11:34:31.424Z,91.52
2023-04-11T11:36:59.262Z,93.93
2023-04-11T11:39:26.383Z,94.02
2023-04-11T11:41:53.627Z,91.92
2023-04-11T11:44:31.161Z,92.79
2023-04-11T11:47:11.023Z,92.44
2023-04-11T11:49:43.828Z,82.67
2023-04-11T11:52:11.912Z,70.28
2023-04-11T11:54:45.908Z,69.13
2023-04-11T11:57:20.519Z,63.61
2023-04-11T11:59:53.143Z,65.38
2023-04-11T12:02:22.134Z,63.81
2023-04-11T12:04:48.983Z,63.45
2023-04-11T12:07:21.718Z,65.93
2023-04-11T12:09:49.559Z,57.28
2023-04-11T12:12:16.075Z,55.51
2023-04-11T12:14:52.966Z,54.88
2023-04-11T12:17:19.440Z,53.13
2023-04-11T12:19:45.940Z,52.92
2023-04-11T12:22:12.451Z,54.06
2023-04-11T12:24:39.125Z,51.02
2023-04-11T12:27:07.330Z,51.67
2023-04-11T12:29:35.082Z,49.31
2023-04-11T12:32:01.584Z,48.71
2023-04-11T12:34:28.232Z,50.01
2023-04-11T12:36:54.759Z,52.68
2023-04-11T12:39:22.756Z,53.46
2023-04-11T12:41:49.898Z,51.99
2023-04-11T12:44:16.620Z,48.38
2023-04-11T12:46:43.179Z,48.98
2023-04-11T12:49:09.610Z,47.67
2023-04-11T12:51:36.342Z,50.06
2023-04-11T12:54:03.844Z,51.65
2023-04-11T12:56:30.321Z,51.71
2023-04-11T12:58:57.266Z,48.83
2023-04-11T13:01:23.946Z,49.64
2023-04-11T13:03:53.568Z,48.96
2023-04-11T13:06:20.292Z,50.45
2023-04-11T13:08:47.556Z,50.17
2023-04-11T13:11:16.340Z,46.63
2023-04-11T13:13:43.149Z,43.91
2023-04-11T13:16:09.779Z,42.52
2023-04-11T13:18:36.240Z,42.29
2023-04-11T13:21:02.736Z,43.51
2023-04-11T13:23:29.507Z,43.33
2023-04-11T13:25:55.934Z,44.17
2023-04-11T13:28:22.439Z,43.93
2023-04-11T13:30:48.855Z,45.23
2023-04-11T13:33:15.231Z,43.81
2023-04-11T13:35:41.716Z,42.49
2023-04-11T13:38:08.199Z,42.88
2023-04-11T13:40:34.622Z,42.42
2023-04-11T13:43:00.995Z,41.03
2023-04-11T13:45:27.539Z,40.84
2023-04-11T13:47:54.179Z,42.38
2023-04-11T13:50:20.719Z,42.70
2023-04-11T13:52:47.582Z,41.97
2023-04-11T13:55:14.109Z,42.53
2023-04-11T13:57:40.859Z,42.22
2023-04-11T14:00:07.899Z,42.36
2023-04-11T14:02:34.406Z,40.74
2023-04-11T14:05:01.174Z,40.40
2023-04-11T14:07:27.846Z,41.08
2023-04-11T14:09:54.272Z,40.54
2023-04-11T14:12:21.185Z,40.30
2023-04-11T14:14:47.670Z,40.23
2023-04-11T14:17:14.184Z,40.56
2023-04-11T14:19:40.630Z,40.54
2023-04-11T14:22:07.475Z,42.53
2023-04-11T14:24:34.331Z,39.58
2023-04-11T14:27:00.901Z,39.66
2023-04-11T14:29:27.390Z,40.64
2023-04-11T14:31:54.243Z,39.66
2023-04-11T14:34:20.706Z,40.19
2023-04-11T14:36:47.078Z,38.85
2023-04-11T14:39:13.586Z,39.74
2023-04-11T14:41:40.088Z,39.72
2023-04-11T14:44:06.748Z,40.55
2023-04-11T14:46:34.500Z,40.44
2023-04-11T14:49:01.541Z,40.85
2023-04-11T14:51:29.007Z,40.10
2023-04-11T14:53:57.076Z,38.49
2023-04-11T14:56:24.873Z,39.42
2023-04-11T14:58:52.186Z,39.23
2023-04-11T15:01:19.309Z,38.91
2023-04-11T15:03:46.079Z,38.51
2023-04-11T15:06:13.112Z,39.16
2023-04-11T15:08:39.789Z,39.71
2023-04-11T15:11:07.386Z,40.16
2023-04-11T15:13:34.106Z,40.42
2023-04-11T15:16:01.737Z,39.92
2023-04-11T15:18:29.611Z,40.55
2023-04-11T15:20:58.680Z,40.13
2023-04-11T15:23:26.325Z,40.44
2023-04-11T15:25:54.462Z,40.92
2023-04-11T15:28:21.797Z,41.16
2023-04-11T15:30:50.484Z,41.17
2023-04-11T15:33:17.233Z,41.21
2023-04-11T15:35:45.328Z,41.97
2023-04-11T15:38:13.354Z,42.00
2023-04-11T15:40:40.116Z,43.13
2023-04-11T15:43:07.180Z,43.47
2023-04-11T15:45:35.378Z,42.27
2023-04-11T15:48:02.656Z,42.49
2023-04-11T15:50:29.911Z,41.30
2023-04-11T15:52:57.426Z,41.91
2023-04-11T15:55:24.316Z,41.99
2023-04-11T15:57:51.842Z,42.67
2023-04-11T16:00:18.723Z,43.57
2023-04-11T16:02:47.015Z,43.54
2023-04-11T16:05:14.473Z,43.63
2023-04-11T16:07:41.669Z,44.43
2023-04-11T16:10:08.808Z,44.24
2023-04-11T16:12:36.654Z,44.20
2023-04-11T16:15:05.926Z,43.82
2023-04-11T16:17:32.841Z,42.89
2023-04-11T16:19:59.768Z,43.41
2023-04-11T16:22:26.553Z,42.47
2023-04-11T16:24:53.409Z,44.02
2023-04-11T16:27:21.404Z,43.63
2023-04-11T16:29:47.979Z,43.92
2023-04-11T16:32:14.482Z,44.71
2023-04-11T16:34:40.846Z,44.61
2023-04-11T16:37:07.272Z,43.92
2023-04-11T16:39:34.133Z,45.56
2023-04-11T16:42:01.131Z,44.77
2023-04-11T16:44:27.735Z,45.08
2023-04-11T16:46:54.170Z,45.49
2023-04-11T16:49:21.241Z,45.82
2023-04-11T16:51:47.625Z,46.21
2023-04-11T16:54:14.086Z,47.76
2023-04-11T16:56:41.223Z,46.61
2023-04-11T16:59:07.897Z,46.65
2023-04-11T17:01:34.664Z,48.04
2023-04-11T17:04:04.157Z,46.89
2023-04-11T17:06:30.974Z,47.45
2023-04-11T17:08:57.851Z,46.79
2023-04-11T17:11:25.149Z,47.60
2023-04-11T17:13:52.748Z,48.20
2023-04-11T17:16:19.142Z,48.31
2023-04-11T17:18:45.606Z,48.92
2023-04-11T17:21:12.200Z,51.32
2023-04-11T17:23:42.508Z,51.24
2023-04-11T17:26:10.654Z,51.82
2023-04-11T17:28:38.977Z,53.41
2023-04-11T17:31:16.793Z,53.69
2023-04-11T17:33:43.337Z,56.30
2023-04-11T17:36:11.859Z,60.10
2023-04-11T17:38:39.027Z,60.28
2023-04-11T17:41:14.497Z,63.64
2023-04-11T17:43:42.596Z,65.04
2023-04-11T17:46:09.567Z,66.58
2023-04-11T17:48:36.799Z,69.84
2023-04-11T17:51:05.996Z,74.53
2023-04-11T17:53:32.865Z,74.59
2023-04-11T17:56:02.742Z,77.47
2023-04-11T17:58:29.625Z,78.49
2023-04-11T18:00:57.193Z,80.03
2023-04-11T18:03:24.430Z,76.73
2023-04-11T18:05:51.441Z,79.31
2023-04-11T18:08:17.858Z,79.09
2023-04-11T18:10:44.227Z,82.92
2023-04-11T18:13:10.734Z,79.24
2023-04-11T18:15:37.217Z,80.89
2023-04-11T18:18:03.923Z,83.91
2023-04-11T18:20:30.450Z,86.82
2023-04-11T18:22:56.952Z,87.92
2023-04-11T18:25:23.611Z,88.51
2023-04-11T18:27:50.158Z,89.26
2023-04-11T18:30:17.121Z,90.73
2023-04-11T18:32:48.964Z,91.63
2023-04-11T18:35:16.663Z,93.21
2023-04-11T18:37:43.073Z,94.82
2023-04-11T18:40:14.366Z,98.00
2023-04-11T18:42:43.072Z,96.18
2023-04-11T18:45:10.195Z,96.22
2023-04-11T18:47:37.822Z,97.86
2023-04-11T18:50:05.231Z,100.00
2023-04-11T18:52:31.741Z,100.00
2023-04-11T18:54:58.900Z,100.00
2023-04-11T18:57:27.433Z,100.00
2023-04-11T18:59:57.110Z,100.00
2023-04-11T19:02:25.050Z,100.00
2023-04-11T19:04:52.350Z,100.00
2023-04-11T19:07:19.072Z,100.00
2023-04-11T19:09:45.864Z,100.00
2023-04-11T19:12:12.693Z,100.00
2023-04-11T19:14:39.658Z,100.00
2023-04-11T19:17:06.467Z,100.00
2023-04-11T19:19:33.192Z,100.00
2023-04-11T19:22:00.047Z,100.00
2023-04-11T19:24:26.885Z,100.00
2023-04-11T19:26:53.749Z,100.00
2023-04-11T19:29:21.067Z,100.00
2023-04-11T19:31:50.868Z,100.00
2023-04-11T19:34:17.266Z,100.00
2023-04-11T19:36:43.776Z,100.00
2023-04-11T19:39:10.486Z,100.00
2023-04-11T19:41:37.418Z,100.00
2023-04-11T19:44:04.469Z,100.00
2023-04-11T19:46:31.133Z,100.00
2023-04-11T19:48:57.754Z,100.00
2023-04-11T19:51:24.796Z,100.00
2023-04-11T19:53:51.437Z,100.00
2023-04-11T19:56:18.101Z,100.00
2023-04-11T19:58:44.703Z,100.00
2023-04-11T20:01:11.620Z,100.00
2023-04-11T20:03:38.315Z,100.00
2023-04-11T20:06:05.924Z,100.00
2023-04-11T20:08:32.777Z,100.00
2023-04-11T20:10:59.303Z,100.00
2023-04-11T20:13:26.037Z,100.00
2023-04-11T20:15:52.567Z,100.00
2023-04-11T20:18:19.212Z,100.00
2023-04-11T20:20:45.713Z,100.00
2023-04-11T20:23:13.402Z,100.00
2023-04-11T20:25:39.834Z,100.00
2023-04-11T20:28:06.214Z,100.00
2023-04-11T20:30:32.923Z,100.00
2023-04-11T20:32:59.852Z,100.00
2023-04-11T20:35:26.609Z,100.00
2023-04-11T20:37:53.128Z,100.00
2023-04-11T20:40:19.617Z,100.00
2023-04-11T20:42:46.330Z,100.00
2023-04-11T20:45:18.782Z,100.00
2023-04-11T20:47:45.563Z,100.00
2023-04-11T20:50:13.958Z,100.00
2023-04-11T20:52:46.282Z,100.00
2023-04-11T20:55:13.971Z,100.00
2023-04-11T20:57:40.821Z,100.00
2023-04-11T21:00:08.571Z,100.00
2023-04-11T21:02:35.400Z,100.00
2023-04-11T21:05:01.904Z,100.00
2023-04-11T21:07:28.710Z,100.00
2023-04-11T21:09:55.195Z,100.00
2023-04-11T21:12:21.766Z,100.00
2023-04-11T21:14:48.147Z,100.00
2023-04-11T21:17:14.574Z,100.00
2023-04-11T21:19:42.428Z,100.00
2023-04-11T21:22:08.984Z,100.00
2023-04-11T21:24:35.522Z,100.00
2023-04-11T21:27:02.599Z,100.00
2023-04-11T21:29:29.093Z,100.00
2023-04-11T21:31:55.475Z,100.00
2023-04-11T21:34:21.955Z,100.00
2023-04-11T21:36:48.695Z,100.00
2023-04-11T21:39:15.249Z,100.00
2023-04-11T21:41:41.703Z,100.00
2023-04-11T21:44:08.448Z,100.00
2023-04-11T21:46:34.951Z,100.00
2023-04-11T21:49:01.445Z,100.00
2023-04-11T21:51:27.935Z,100.00
2023-04-11T21:53:54.528Z,100.00
2023-04-11T21:56:21.233Z,100.00
2023-04-11T21:58:47.639Z,100.00
2023-04-11T22:01:15.090Z,100.00
2023-04-11T22:03:42.741Z,100.00
2023-04-11T22:06:10.517Z,100.00
2023-04-11T22:08:37.632Z,100.00
2023-04-11T22:11:07.393Z,100.00
2023-04-11T22:13:33.961Z,100.00
2023-04-11T22:16:00.676Z,100.00
2023-04-11T22:18:27.393Z,100.00
2023-04-11T22:20:55.452Z,100.00
2023-04-11T22:23:21.962Z,100.00
2023-04-11T22:25:54.993Z,100.00
2023-04-11T22:28:21.788Z,100.00
2023-04-11T22:30:48.146Z,100.00
2023-04-11T22:33:16.171Z,100.00
2023-04-11T22:35:43.179Z,100.00
2023-04-11T22:38:09.612Z,100.00
2023-04-11T22:40:36.331Z,100.00
2023-04-11T22:43:02.758Z,100.00
2023-04-11T22:45:29.423Z,100.00
2023-04-11T22:47:56.015Z,100.00
2023-04-11T22:50:23.949Z,100.00
2023-04-11T22:52:50.310Z,100.00
2023-04-11T22:55:17.047Z,100.00
2023-04-11T22:57:43.764Z,100.00
2023-04-11T23:00:10.805Z,100.00
2023-04-11T23:02:37.366Z,100.00
2023-04-11T23:05:04.392Z,100.00
2023-04-11T23:07:32.146Z,100.00
2023-04-11T23:09:59.135Z,100.00
2023-04-11T23:12:25.532Z,100.00
2023-04-11T23:14:51.968Z,100.00
2023-04-11T23:17:18.368Z,100.00
2023-04-11T23:19:44.739Z,100.00
2023-04-11T23:22:11.146Z,100.00
2023-04-11T23:24:37.588Z,100.00
2023-04-11T23:27:04.212Z,100.00
2023-04-11T23:29:30.644Z,100.00
2023-04-11T23:31:57.049Z,100.00
2023-04-11T23:34:23.344Z,100.00
2023-04-11T23:36:49.781Z,100.00
2023-04-11T23:39:16.168Z,100.00
2023-04-11T23:41:42.593Z,100.00
2023-04-11T23:44:09.173Z,100.00
2023-04-11T23:46:35.634Z,100.00
2023-04-11T23:49:02.214Z,100.00
2023-04-11T23:51:28.701Z,100.00
2023-04-11T23:53:55.067Z,100.00
2023-04-11T23:56:22.033Z,100.00
2023-04-11T23:58:48.773Z,100.00
